createdAt,value
2022-09-14T00:01:27.610Z,22.71
2022-09-14T00:03:57.362Z,22.72
2022-09-14T00:06:25.816Z,22.70
2022-09-14T00:08:56.601Z,22.53
2022-09-14T00:11:26.808Z,22.71
2022-09-14T00:13:55.278Z,22.68
2022-09-14T00:16:26.159Z,22.68
2022-09-14T00:18:55.780Z,22.46
2022-09-14T00:21:24.404Z,22.62
2022-09-14T00:23:52.589Z,22.65
2022-09-14T00:26:24.293Z,22.65
2022-09-14T00:28:54.476Z,22.64
2022-09-14T00:31:23.275Z,22.61
2022-09-14T00:33:52.816Z,22.63
2022-09-14T00:36:22.777Z,22.61
2022-09-14T00:38:51.680Z,22.61
2022-09-14T00:41:23.161Z,22.61
2022-09-14T00:43:57.021Z,22.60
2022-09-14T00:46:25.824Z,22.58
2022-09-14T00:48:54.550Z,22.60
2022-09-14T00:51:23.459Z,22.60
2022-09-14T00:53:51.761Z,22.60
2022-09-14T00:56:20.574Z,22.60
2022-09-14T00:58:52.956Z,22.61
2022-09-14T01:01:21.045Z,22.60
2022-09-14T01:03:49.169Z,22.58
2022-09-14T01:06:24.432Z,22.61
2022-09-14T01:09:08.837Z,22.62
2022-09-14T01:12:05.284Z,22.61
2022-09-14T01:14:43.268Z,22.60
2022-09-14T01:17:16.187Z,22.60
2022-09-14T01:20:05.221Z,22.52
2022-09-14T01:22:38.070Z,22.60
2022-09-14T01:25:21.566Z,22.62
2022-09-14T01:27:52.950Z,22.61
2022-09-14T01:30:24.458Z,22.60
2022-09-14T01:32:55.551Z,22.61
2022-09-14T01:35:30.525Z,22.61
2022-09-14T01:38:04.093Z,22.60
2022-09-14T01:40:34.979Z,22.60
2022-09-14T01:43:09.121Z,22.60
2022-09-14T01:45:38.527Z,22.58
2022-09-14T01:48:10.096Z,22.61
2022-09-14T01:50:42.496Z,22.60
2022-09-14T01:53:16.099Z,22.60
2022-09-14T01:55:48.702Z,22.60
2022-09-14T01:58:22.704Z,22.61
2022-09-14T02:00:52.011Z,22.60
2022-09-14T02:03:23.743Z,22.60
2022-09-14T02:05:59.103Z,22.63
2022-09-14T02:08:29.928Z,22.61
2022-09-14T02:10:58.406Z,22.62
2022-09-14T02:13:28.604Z,22.62
2022-09-14T02:15:56.932Z,22.61
2022-09-14T02:18:25.142Z,22.62
2022-09-14T02:20:57.900Z,22.63
2022-09-14T02:23:26.295Z,22.61
2022-09-14T02:25:54.322Z,22.62
2022-09-14T02:28:22.641Z,22.62
2022-09-14T02:31:02.213Z,22.67
2022-09-14T02:33:40.901Z,22.64
2022-09-14T02:36:17.174Z,22.65
2022-09-14T02:38:51.273Z,22.63
2022-09-14T02:41:23.829Z,22.64
2022-09-14T02:44:00.937Z,22.67
2022-09-14T02:46:38.160Z,22.67
2022-09-14T02:49:15.338Z,22.65
2022-09-14T02:51:50.346Z,22.65
2022-09-14T02:54:23.906Z,22.67
2022-09-14T02:56:51.990Z,22.67
2022-09-14T02:59:19.885Z,22.67
2022-09-14T03:01:49.160Z,22.66
2022-09-14T03:04:17.105Z,22.66
2022-09-14T03:06:44.948Z,22.66
2022-09-14T03:09:12.838Z,22.66
2022-09-14T03:11:40.718Z,22.67
2022-09-14T03:14:08.577Z,22.65
2022-09-14T03:16:38.226Z,22.50
2022-09-14T03:19:07.517Z,22.66
2022-09-14T03:21:35.436Z,22.64
2022-09-14T03:24:04.329Z,22.64
2022-09-14T03:26:36.697Z,22.64
2022-09-14T03:29:05.608Z,22.65
2022-09-14T03:31:34.148Z,22.64
2022-09-14T03:34:03.249Z,22.63
2022-09-14T03:36:32.705Z,22.52
2022-09-14T03:39:02.809Z,22.63
2022-09-14T03:41:31.006Z,22.44
2022-09-14T03:43:58.958Z,22.62
2022-09-14T03:46:27.497Z,22.62
2022-09-14T03:48:56.144Z,22.61
2022-09-14T03:51:24.413Z,22.61
2022-09-14T03:53:54.481Z,22.62
2022-09-14T03:56:24.259Z,22.62
2022-09-14T03:58:52.343Z,22.60
2022-09-14T04:01:22.667Z,22.60
2022-09-14T04:03:51.241Z,22.59
2022-09-14T04:06:20.337Z,22.52
2022-09-14T04:08:48.764Z,22.56
2022-09-14T04:11:20.119Z,22.58
2022-09-14T04:13:48.737Z,22.57
2022-09-14T04:16:17.810Z,22.58
2022-09-14T04:18:46.076Z,22.40
2022-09-14T04:21:15.855Z,22.56
2022-09-14T04:24:12.825Z,22.54
2022-09-14T04:26:34.273Z,22.55
2022-09-14T04:29:02.191Z,22.54
2022-09-14T04:31:30.229Z,22.55
2022-09-14T04:33:58.500Z,22.54
2022-09-14T04:36:30.991Z,22.53
2022-09-14T04:39:01.189Z,22.40
2022-09-14T04:41:30.821Z,22.54
2022-09-14T04:44:00.555Z,22.55
2022-09-14T04:46:30.511Z,22.54
2022-09-14T04:48:58.918Z,22.53
2022-09-14T04:51:30.269Z,22.52
2022-09-14T04:54:00.287Z,22.34
2022-09-14T04:56:30.177Z,22.51
2022-09-14T04:59:01.798Z,22.51
2022-09-14T05:01:31.391Z,22.49
2022-09-14T05:03:59.799Z,22.49
2022-09-14T05:06:29.832Z,22.49
2022-09-14T05:08:59.178Z,22.48
2022-09-14T05:11:28.988Z,22.50
2022-09-14T05:13:57.991Z,22.50
2022-09-14T05:16:29.004Z,22.50
2022-09-14T05:19:01.234Z,22.32
2022-09-14T05:21:30.737Z,22.50
2022-09-14T05:24:01.998Z,22.51
2022-09-14T05:26:31.724Z,22.48
2022-09-14T05:29:03.378Z,22.50
2022-09-14T05:31:33.610Z,22.50
2022-09-14T05:34:01.713Z,22.48
2022-09-14T05:36:29.590Z,22.48
2022-09-14T05:38:59.143Z,22.49
2022-09-14T05:41:27.038Z,22.47
2022-09-14T05:43:54.961Z,22.50
2022-09-14T05:46:23.022Z,22.50
2022-09-14T05:48:52.560Z,22.48
2022-09-14T05:51:22.482Z,22.47
2022-09-14T05:53:51.512Z,22.43
2022-09-14T05:56:21.129Z,22.49
2022-09-14T05:58:49.821Z,22.47
2022-09-14T06:01:19.481Z,22.51
2022-09-14T06:03:48.877Z,22.50
2022-09-14T06:06:20.206Z,22.51
2022-09-14T06:08:52.324Z,22.52
2022-09-14T06:11:21.789Z,22.43
2022-09-14T06:13:50.007Z,22.52
2022-09-14T06:16:19.620Z,22.52
2022-09-14T06:18:48.861Z,22.52
2022-09-14T06:21:20.503Z,22.53
2022-09-14T06:23:49.696Z,22.52
2022-09-14T06:26:18.114Z,22.53
2022-09-14T06:28:46.171Z,22.52
2022-09-14T06:31:15.163Z,22.51
2022-09-14T06:33:46.907Z,22.52
2022-09-14T06:36:17.902Z,22.50
2022-09-14T06:38:48.991Z,22.42
2022-09-14T06:41:19.281Z,22.53
2022-09-14T06:43:47.817Z,22.51
2022-09-14T06:46:19.168Z,22.49
2022-09-14T06:48:48.792Z,22.48
2022-09-14T06:51:19.362Z,22.48
2022-09-14T06:53:49.603Z,22.43
2022-09-14T06:56:18.167Z,22.48
2022-09-14T06:58:46.738Z,22.47
2022-09-14T07:01:16.892Z,22.51
2022-09-14T07:03:46.954Z,22.42
2022-09-14T07:06:16.717Z,22.55
2022-09-14T07:08:45.217Z,22.57
2022-09-14T07:11:15.598Z,22.62
2022-09-14T07:13:43.452Z,22.66
2022-09-14T07:16:11.812Z,22.68
2022-09-14T07:18:40.173Z,22.73
2022-09-14T07:21:10.188Z,22.77
2022-09-14T07:23:39.698Z,22.78
2022-09-14T07:26:09.217Z,22.80
2022-09-14T07:28:40.114Z,22.82
2022-09-14T07:31:19.154Z,22.83
2022-09-14T07:33:47.479Z,22.81
2022-09-14T07:36:16.309Z,22.84
2022-09-14T07:38:52.990Z,22.86
2022-09-14T07:41:22.207Z,22.88
2022-09-14T07:43:52.841Z,22.91
2022-09-14T07:46:21.783Z,22.89
2022-09-14T07:48:55.118Z,22.93
2022-09-14T07:51:23.778Z,22.94
2022-09-14T07:53:51.953Z,22.97
2022-09-14T07:56:19.987Z,22.99
2022-09-14T07:58:51.452Z,23.01
2022-09-14T08:01:24.317Z,23.02
2022-09-14T08:03:52.240Z,23.02
2022-09-14T08:06:22.432Z,23.02
2022-09-14T08:08:52.562Z,22.93
2022-09-14T08:11:22.190Z,22.87
2022-09-14T08:13:52.992Z,23.03
2022-09-14T08:16:21.301Z,23.05
2022-09-14T08:18:56.448Z,23.07
2022-09-14T08:21:24.858Z,23.06
2022-09-14T08:23:53.148Z,23.07
2022-09-14T08:26:23.457Z,23.08
2022-09-14T08:28:52.771Z,23.08
2022-09-14T08:31:22.641Z,23.04
2022-09-14T08:33:53.338Z,23.09
2022-09-14T08:36:23.141Z,23.10
2022-09-14T08:38:51.372Z,23.15
2022-09-14T08:41:29.417Z,23.19
2022-09-14T08:44:01.748Z,23.20
2022-09-14T08:46:32.784Z,23.18
2022-09-14T08:49:04.690Z,23.21
2022-09-14T08:51:32.640Z,23.22
2022-09-14T08:54:00.582Z,23.22
2022-09-14T08:56:33.818Z,23.25
2022-09-14T08:59:35.937Z,23.23
2022-09-14T09:02:20.337Z,23.19
2022-09-14T09:04:55.469Z,23.06
2022-09-14T09:07:33.072Z,23.25
2022-09-14T09:10:01.364Z,23.24
2022-09-14T09:12:37.665Z,23.26
2022-09-14T09:15:16.156Z,23.26
2022-09-14T09:17:48.669Z,23.28
2022-09-14T09:20:23.399Z,23.29
2022-09-14T09:22:56.225Z,23.29
2022-09-14T09:25:27.753Z,23.31
2022-09-14T09:27:59.294Z,23.33
2022-09-14T09:30:29.308Z,23.32
2022-09-14T09:32:57.989Z,23.33
2022-09-14T09:35:52.388Z,23.28
2022-09-14T09:38:29.296Z,23.32
2022-09-14T09:41:02.952Z,23.34
2022-09-14T09:43:48.457Z,23.33
2022-09-14T09:46:18.552Z,23.32
2022-09-14T09:48:48.327Z,23.33
2022-09-14T09:51:26.726Z,23.33
2022-09-14T09:53:57.114Z,23.22
2022-09-14T09:56:27.570Z,23.35
2022-09-14T09:58:56.067Z,23.33
2022-09-14T10:01:29.228Z,23.35
2022-09-14T10:04:16.184Z,23.35
2022-09-14T10:06:47.374Z,23.30
2022-09-14T10:09:18.062Z,23.32
2022-09-14T10:11:47.642Z,23.28
2022-09-14T10:14:25.927Z,23.28
2022-09-14T10:16:54.458Z,23.29
2022-09-14T10:19:26.039Z,23.29
2022-09-14T10:22:25.739Z,23.30
2022-09-14T10:24:57.387Z,23.15
2022-09-14T10:27:41.405Z,23.27
2022-09-14T10:30:16.716Z,23.27
2022-09-14T10:32:50.076Z,23.25
2022-09-14T10:35:18.692Z,23.24
2022-09-14T10:38:01.050Z,23.27
2022-09-14T10:40:36.248Z,23.25
2022-09-14T10:43:14.622Z,23.24
2022-09-14T10:45:48.598Z,23.23
2022-09-14T10:48:45.259Z,23.23
2022-09-14T10:51:40.018Z,23.20
2022-09-14T10:54:19.418Z,23.21
2022-09-14T10:57:03.599Z,23.21
2022-09-14T10:59:36.146Z,23.19
2022-09-14T11:02:35.802Z,23.19
2022-09-14T11:05:16.645Z,23.19
2022-09-14T11:07:57.257Z,23.20
2022-09-14T11:10:33.648Z,23.19
2022-09-14T11:13:34.910Z,23.20
2022-09-14T11:16:12.252Z,23.18
2022-09-14T11:18:54.224Z,23.18
2022-09-14T11:21:32.618Z,23.19
2022-09-14T11:24:06.812Z,23.19
2022-09-14T11:26:42.378Z,23.18
2022-09-14T11:29:24.562Z,23.19
2022-09-14T11:32:16.792Z,23.18
2022-09-14T11:34:47.583Z,23.18
2022-09-14T11:37:18.808Z,23.19
2022-09-14T11:39:49.901Z,23.18
2022-09-14T11:42:24.448Z,23.19
2022-09-14T11:45:00.026Z,23.18
2022-09-14T11:47:29.936Z,23.17
2022-09-14T11:50:03.924Z,23.18
2022-09-14T11:52:33.757Z,23.16
2022-09-14T11:55:03.226Z,23.17
2022-09-14T11:57:34.751Z,23.20
2022-09-14T12:00:07.521Z,23.20
2022-09-14T12:02:58.452Z,23.20
2022-09-14T12:05:29.877Z,23.20
2022-09-14T12:08:03.229Z,23.22
2022-09-14T12:10:31.872Z,23.22
2022-09-14T12:13:21.000Z,23.23
2022-09-14T12:15:49.013Z,23.23
2022-09-14T12:18:25.652Z,23.26
2022-09-14T12:21:20.901Z,23.26
2022-09-14T12:23:52.514Z,23.23
2022-09-14T12:26:32.134Z,23.27
2022-09-14T12:29:25.584Z,23.29
2022-09-14T12:32:40.628Z,23.26
2022-09-14T12:35:48.094Z,23.27
2022-09-14T12:38:42.368Z,23.29
2022-09-14T12:41:47.676Z,23.30
2022-09-14T12:44:35.932Z,23.32
2022-09-14T12:47:54.188Z,23.33
2022-09-14T12:50:23.565Z,23.31
2022-09-14T12:53:22.608Z,23.35
2022-09-14T12:55:59.938Z,23.37
2022-09-14T12:58:51.067Z,23.37
2022-09-14T13:01:30.512Z,23.38
2022-09-14T13:03:59.488Z,23.38
2022-09-14T13:06:35.644Z,23.41
2022-09-14T13:09:09.392Z,23.40
2022-09-14T13:11:41.497Z,23.40
2022-09-14T13:14:17.624Z,23.42
2022-09-14T13:16:51.503Z,23.40
2022-09-14T13:19:25.917Z,23.42
2022-09-14T13:21:56.486Z,23.41
2022-09-14T13:24:28.692Z,23.41
2022-09-14T13:27:00.148Z,23.24
2022-09-14T13:29:28.589Z,23.40
2022-09-14T13:32:03.356Z,23.41
2022-09-14T13:34:35.703Z,23.41
2022-09-14T13:37:04.844Z,23.41
2022-09-14T13:39:35.929Z,23.41
2022-09-14T13:42:04.916Z,23.41
2022-09-14T13:44:34.910Z,23.42
2022-09-14T13:47:06.880Z,23.43
2022-09-14T13:49:36.829Z,23.44
2022-09-14T13:52:50.055Z,23.44
2022-09-14T13:55:23.576Z,23.41
2022-09-14T13:58:15.145Z,23.42
2022-09-14T14:00:53.064Z,23.41
2022-09-14T14:03:31.429Z,23.43
2022-09-14T14:06:00.382Z,23.42
2022-09-14T14:08:36.216Z,23.37
2022-09-14T14:11:07.570Z,23.45
2022-09-14T14:13:38.231Z,23.46
2022-09-14T14:16:21.596Z,23.47
2022-09-14T14:18:55.629Z,23.48
2022-09-14T14:21:30.103Z,23.49
2022-09-14T14:24:26.413Z,23.49
2022-09-14T14:26:56.340Z,23.48
2022-09-14T14:29:24.944Z,23.48
2022-09-14T14:31:54.948Z,23.49
2022-09-14T14:34:25.726Z,23.50
2022-09-14T14:36:53.989Z,23.49
2022-09-14T14:39:23.615Z,23.49
2022-09-14T14:41:52.040Z,23.49
2022-09-14T14:44:23.192Z,23.50
2022-09-14T14:46:51.383Z,23.49
2022-09-14T14:49:20.526Z,23.51
2022-09-14T14:51:49.827Z,23.53
2022-09-14T14:54:18.054Z,23.52
2022-09-14T14:56:46.624Z,23.52
2022-09-14T14:59:27.581Z,23.54
2022-09-14T15:01:56.071Z,23.40
2022-09-14T15:04:24.166Z,23.52
2022-09-14T15:06:55.948Z,23.51
2022-09-14T15:09:26.136Z,23.52
2022-09-14T15:11:55.280Z,23.52
2022-09-14T15:14:27.769Z,23.39
2022-09-14T15:16:59.932Z,23.54
2022-09-14T15:19:28.282Z,23.55
2022-09-14T15:22:01.311Z,23.56
2022-09-14T15:24:30.301Z,23.55
2022-09-14T15:26:58.838Z,23.57
2022-09-14T15:29:26.770Z,23.57
2022-09-14T15:31:54.817Z,23.46
2022-09-14T15:34:22.960Z,23.55
2022-09-14T15:36:52.986Z,23.57
2022-09-14T15:39:27.113Z,23.58
2022-09-14T15:41:56.013Z,23.57
2022-09-14T15:44:26.456Z,23.57
2022-09-14T15:46:54.700Z,23.57
2022-09-14T15:49:24.146Z,23.57
2022-09-14T15:51:53.812Z,23.56
2022-09-14T15:54:25.697Z,23.56
2022-09-14T15:56:55.959Z,23.56
2022-09-14T15:59:24.143Z,23.35
2022-09-14T16:01:52.128Z,23.55
2022-09-14T16:04:20.569Z,23.57
2022-09-14T16:06:48.872Z,23.56
2022-09-14T16:09:18.693Z,23.56
2022-09-14T16:11:48.388Z,23.55
2022-09-14T16:14:17.800Z,23.54
2022-09-14T16:16:45.693Z,23.53
2022-09-14T16:19:15.704Z,23.52
2022-09-14T16:21:43.926Z,23.42
2022-09-14T16:24:14.533Z,23.50
2022-09-14T16:26:42.498Z,23.49
2022-09-14T16:29:14.541Z,23.48
2022-09-14T16:31:44.641Z,23.48
2022-09-14T16:34:14.961Z,23.47
2022-09-14T16:36:43.588Z,23.44
2022-09-14T16:39:14.507Z,23.44
2022-09-14T16:41:42.821Z,23.41
2022-09-14T16:44:16.664Z,23.40
2022-09-14T16:46:45.012Z,23.21
2022-09-14T16:49:13.458Z,23.35
2022-09-14T16:51:41.552Z,22.92
2022-09-14T16:54:10.121Z,23.18
2022-09-14T16:56:39.445Z,23.31
2022-09-14T16:59:08.576Z,23.29
2022-09-14T17:01:40.800Z,23.30
2022-09-14T17:04:11.770Z,23.27
2022-09-14T17:06:41.505Z,23.25
2022-09-14T17:09:11.497Z,23.24
2022-09-14T17:11:40.930Z,23.23
2022-09-14T17:14:10.215Z,23.22
2022-09-14T17:16:39.572Z,23.21
2022-09-14T17:19:07.538Z,23.18
2022-09-14T17:21:37.388Z,23.17
2022-09-14T17:24:06.501Z,23.17
2022-09-14T17:26:35.641Z,23.16
2022-09-14T17:29:04.334Z,23.14
2022-09-14T17:31:35.494Z,23.13
2022-09-14T17:34:07.299Z,23.12
2022-09-14T17:36:35.997Z,23.10
2022-09-14T17:39:10.657Z,23.09
2022-09-14T17:41:40.450Z,23.07
2022-09-14T17:44:10.946Z,23.07
2022-09-14T17:46:48.240Z,23.06
2022-09-14T17:49:21.725Z,23.02
2022-09-14T17:51:50.161Z,22.86
2022-09-14T17:54:18.793Z,23.02
2022-09-14T17:56:46.714Z,23.03
2022-09-14T17:59:17.581Z,23.02
2022-09-14T18:01:45.617Z,22.86
2022-09-14T18:04:15.784Z,23.00
2022-09-14T18:06:47.669Z,22.99
2022-09-14T18:09:17.783Z,22.96
2022-09-14T18:11:46.443Z,22.96
2022-09-14T18:14:15.196Z,22.97
2022-09-14T18:16:44.293Z,22.96
2022-09-14T18:19:13.372Z,22.94
2022-09-14T18:21:42.207Z,22.94
2022-09-14T18:24:14.870Z,22.84
2022-09-14T18:26:46.248Z,22.90
2022-09-14T18:29:18.271Z,22.93
2022-09-14T18:31:46.314Z,22.91
2022-09-14T18:34:15.093Z,22.90
2022-09-14T18:36:43.502Z,22.88
2022-09-14T18:39:14.117Z,22.88
2022-09-14T18:41:43.671Z,22.86
2022-09-14T18:44:12.681Z,22.86
2022-09-14T18:46:41.235Z,22.85
2022-09-14T18:49:10.366Z,22.85
2022-09-14T18:51:38.503Z,22.83
2022-09-14T18:54:12.939Z,22.84
2022-09-14T18:56:42.578Z,22.82
2022-09-14T18:59:14.435Z,22.82
2022-09-14T19:01:44.141Z,22.82
2022-09-14T19:04:13.205Z,22.80
2022-09-14T19:06:41.991Z,22.79
2022-09-14T19:09:11.683Z,22.80
2022-09-14T19:11:39.801Z,22.78
2022-09-14T19:14:12.687Z,22.72
2022-09-14T19:16:42.810Z,22.74
2022-09-14T19:19:14.343Z,22.77
2022-09-14T19:21:44.838Z,22.76
2022-09-14T19:24:15.242Z,22.74
2022-09-14T19:26:46.402Z,22.76
2022-09-14T19:29:18.123Z,22.77
2022-09-14T19:31:48.512Z,22.73
2022-09-14T19:34:17.667Z,22.73
2022-09-14T19:36:47.549Z,22.73
2022-09-14T19:39:17.397Z,22.73
2022-09-14T19:41:47.506Z,22.70
2022-09-14T19:44:22.399Z,22.72
2022-09-14T19:46:52.925Z,22.70
2022-09-14T19:49:25.628Z,22.70
2022-09-14T19:51:54.427Z,22.69
2022-09-14T19:54:22.671Z,22.68
2022-09-14T19:56:50.722Z,22.67
2022-09-14T19:59:20.083Z,22.66
2022-09-14T20:01:48.121Z,22.64
2022-09-14T20:04:18.301Z,22.64
2022-09-14T20:06:48.080Z,22.63
2022-09-14T20:09:17.884Z,22.62
2022-09-14T20:11:47.262Z,22.63
2022-09-14T20:14:23.024Z,22.64
2022-09-14T20:16:53.119Z,22.63
2022-09-14T20:19:22.986Z,22.64
2022-09-14T20:21:52.249Z,22.65
2022-09-14T20:24:25.486Z,22.67
2022-09-14T20:26:55.402Z,22.67
2022-09-14T20:29:26.226Z,22.68
2022-09-14T20:31:54.195Z,22.69
2022-09-14T20:34:22.217Z,22.68
2022-09-14T20:36:51.287Z,22.55
2022-09-14T20:39:20.126Z,22.49
2022-09-14T20:41:48.703Z,22.64
2022-09-14T20:44:21.920Z,22.65
2022-09-14T20:46:52.096Z,22.66
2022-09-14T20:49:22.118Z,22.64
2022-09-14T20:51:52.568Z,22.64
2022-09-14T20:54:20.878Z,22.63
2022-09-14T20:56:48.737Z,22.63
2022-09-14T20:59:18.330Z,22.64
2022-09-14T21:01:49.489Z,22.63
2022-09-14T21:04:22.106Z,22.63
2022-09-14T21:06:52.850Z,22.63
2022-09-14T21:09:24.096Z,22.61
2022-09-14T21:11:52.920Z,22.61
2022-09-14T21:14:21.452Z,22.61
2022-09-14T21:16:53.161Z,22.59
2022-09-14T21:19:24.489Z,22.60
2022-09-14T21:21:52.785Z,22.59
2022-09-14T21:24:22.126Z,22.58
2022-09-14T21:26:49.984Z,22.57
2022-09-14T21:29:20.962Z,22.58
2022-09-14T21:31:49.706Z,22.56
2022-09-14T21:34:18.565Z,22.37
2022-09-14T21:36:50.814Z,22.56
2022-09-14T21:39:21.626Z,22.55
2022-09-14T21:41:53.437Z,22.55
2022-09-14T21:44:24.053Z,22.55
2022-09-14T21:46:52.176Z,22.55
2022-09-14T21:49:21.866Z,22.54
2022-09-14T21:51:51.485Z,22.53
2022-09-14T21:54:20.417Z,22.40
2022-09-14T21:56:48.868Z,22.49
2022-09-14T21:59:19.207Z,22.47
2022-09-14T22:01:47.640Z,22.45
2022-09-14T22:04:17.075Z,22.45
2022-09-14T22:06:45.705Z,22.41
2022-09-14T22:09:16.717Z,22.41
2022-09-14T22:11:44.660Z,22.32
2022-09-14T22:14:14.649Z,22.38
2022-09-14T22:16:43.325Z,22.38
2022-09-14T22:19:15.686Z,22.18
2022-09-14T22:21:43.948Z,22.36
2022-09-14T22:24:15.088Z,22.34
2022-09-14T22:26:45.397Z,22.35
2022-09-14T22:29:14.526Z,22.32
2022-09-14T22:31:44.149Z,22.33
2022-09-14T22:34:12.614Z,22.32
2022-09-14T22:36:41.226Z,22.30
2022-09-14T22:39:10.070Z,22.29
2022-09-14T22:41:38.800Z,22.27
2022-09-14T22:44:08.785Z,22.27
2022-09-14T22:46:37.254Z,22.28
2022-09-14T22:49:05.256Z,22.26
2022-09-14T22:51:33.472Z,22.25
2022-09-14T22:54:02.018Z,22.26
2022-09-14T22:56:32.445Z,22.26
2022-09-14T22:59:01.601Z,22.25
2022-09-14T23:01:33.602Z,22.05
2022-09-14T23:04:04.804Z,22.24
2022-09-14T23:06:34.392Z,22.21
2022-09-14T23:09:02.958Z,22.21
2022-09-14T23:11:31.375Z,22.20
2022-09-14T23:13:59.401Z,22.19
2022-09-14T23:16:29.537Z,22.04
2022-09-14T23:19:00.761Z,22.21
2022-09-14T23:21:31.002Z,22.21
2022-09-14T23:24:01.001Z,22.20
2022-09-14T23:26:29.958Z,22.21
2022-09-14T23:28:59.733Z,22.21
2022-09-14T23:31:29.060Z,22.21
2022-09-14T23:33:59.886Z,22.21
2022-09-14T23:36:28.233Z,21.76
2022-09-14T23:38:56.151Z,22.20
2022-09-14T23:41:25.674Z,22.19
2022-09-14T23:43:54.110Z,22.19
2022-09-14T23:46:22.795Z,22.19
2022-09-14T23:48:51.677Z,22.17
2022-09-14T23:51:21.164Z,22.19
2022-09-14T23:53:49.369Z,22.18
2022-09-14T23:56:17.247Z,22.18
2022-09-14T23:58:45.651Z,22.17
